createdAt,value
2023-04-15T00:00:24.397Z,57.70
2023-04-15T00:03:31.626Z,57.82
2023-04-15T00:06:41.250Z,58.01
2023-04-15T00:09:47.914Z,58.26
2023-04-15T00:12:53.961Z,58.42
2023-04-15T00:16:00.431Z,58.69
2023-04-15T00:19:06.088Z,58.46
2023-04-15T00:22:15.569Z,58.45
2023-04-15T00:25:21.416Z,58.13
2023-04-15T00:28:28.341Z,57.94
2023-04-15T00:31:35.309Z,57.36
2023-04-15T00:34:41.961Z,57.83
2023-04-15T00:37:50.229Z,57.07
2023-04-15T00:40:56.899Z,56.65
2023-04-15T00:44:02.741Z,55.99
2023-04-15T00:47:10.159Z,55.35
2023-04-15T00:50:16.387Z,55.62
2023-04-15T00:53:26.232Z,54.58
2023-04-15T00:56:33.865Z,55.02
2023-04-15T00:59:40.874Z,56.21
2023-04-15T01:02:46.628Z,57.40
2023-04-15T01:05:58.581Z,58.28
2023-04-15T01:09:07.570Z,57.75
2023-04-15T01:12:18.434Z,57.27
2023-04-15T01:15:24.117Z,56.96
2023-04-15T01:18:31.730Z,56.77
2023-04-15T01:21:40.468Z,55.88
2023-04-15T01:25:02.215Z,55.67
2023-04-15T01:28:12.428Z,55.20
2023-04-15T01:31:19.110Z,54.70
2023-04-15T01:34:25.261Z,52.46
2023-04-15T01:37:34.301Z,52.51
2023-04-15T01:40:41.086Z,52.34
2023-04-15T01:43:50.221Z,53.03
2023-04-15T01:46:55.786Z,54.58
2023-04-15T01:50:02.473Z,55.37
2023-04-15T01:53:08.878Z,55.54
2023-04-15T01:56:16.852Z,55.58
2023-04-15T01:59:25.951Z,55.88
2023-04-15T02:02:32.696Z,55.37
2023-04-15T02:05:38.578Z,54.15
2023-04-15T02:08:44.994Z,53.71
2023-04-15T02:11:50.802Z,53.04
2023-04-15T02:15:00.355Z,52.49
2023-04-15T02:18:08.443Z,52.31
2023-04-15T02:21:15.769Z,51.76
2023-04-15T02:24:21.427Z,51.47
2023-04-15T02:27:28.784Z,51.16
2023-04-15T02:30:37.671Z,51.47
2023-04-15T02:33:44.116Z,51.23
2023-04-15T02:36:55.170Z,51.13
2023-04-15T02:40:01.237Z,50.98
2023-04-15T02:43:08.370Z,50.98
2023-04-15T02:46:17.151Z,50.37
2023-04-15T02:49:23.696Z,50.62
2023-04-15T02:52:29.287Z,50.21
2023-04-15T02:55:36.211Z,51.02
2023-04-15T02:58:43.367Z,51.24
2023-04-15T03:01:52.827Z,50.52
2023-04-15T03:04:58.551Z,51.10
2023-04-15T03:08:05.109Z,50.90
2023-04-15T03:11:11.109Z,50.87
2023-04-15T03:14:17.632Z,51.38
2023-04-15T03:17:31.241Z,51.92
2023-04-15T03:20:38.764Z,51.73
2023-04-15T03:23:44.565Z,51.46
2023-04-15T03:26:52.164Z,51.27
2023-04-15T03:29:57.723Z,50.56
2023-04-15T03:33:08.740Z,50.55
2023-04-15T03:36:16.315Z,50.98
2023-04-15T03:39:22.713Z,50.90
2023-04-15T03:42:28.218Z,50.99
2023-04-15T03:45:34.849Z,51.06
2023-04-15T03:48:42.979Z,51.21
2023-04-15T03:51:49.757Z,51.49
2023-04-15T03:54:55.439Z,51.55
2023-04-15T03:58:01.901Z,52.01
2023-04-15T04:01:07.707Z,52.65
2023-04-15T04:04:16.950Z,52.04
2023-04-15T04:07:22.650Z,51.71
2023-04-15T04:10:30.263Z,52.36
2023-04-15T04:13:35.859Z,52.54
2023-04-15T04:16:42.336Z,52.24
2023-04-15T04:19:50.555Z,52.54
2023-04-15T04:22:56.963Z,52.75
2023-04-15T04:26:02.879Z,53.24
2023-04-15T04:29:09.372Z,53.46
2023-04-15T04:32:14.990Z,53.81
2023-04-15T04:35:24.399Z,53.81
2023-04-15T04:38:29.946Z,53.69
2023-04-15T04:41:36.483Z,53.23
2023-04-15T04:44:42.245Z,53.56
2023-04-15T04:47:49.412Z,54.11
2023-04-15T04:50:58.068Z,53.65
2023-04-15T04:54:04.684Z,53.54
2023-04-15T04:57:10.837Z,53.53
2023-04-15T05:00:17.892Z,53.22
2023-04-15T05:03:23.740Z,53.28
2023-04-15T05:06:33.433Z,53.91
2023-04-15T05:09:39.171Z,54.49
2023-04-15T05:12:45.911Z,54.42
2023-04-15T05:15:51.936Z,54.19
2023-04-15T05:18:58.327Z,53.81
2023-04-15T05:22:06.639Z,53.90
2023-04-15T05:25:13.125Z,53.72
2023-04-15T05:28:18.710Z,54.05
2023-04-15T05:31:25.188Z,53.89
2023-04-15T05:34:30.718Z,54.42
2023-04-15T05:37:39.780Z,54.17
2023-04-15T05:40:45.455Z,53.67
2023-04-15T05:43:52.176Z,53.97
2023-04-15T05:46:58.195Z,53.84
2023-04-15T05:50:04.730Z,54.13
2023-04-15T05:53:13.098Z,54.00
2023-04-15T05:56:20.580Z,53.85
2023-04-15T05:59:26.275Z,53.69
2023-04-15T06:02:32.958Z,53.77
2023-04-15T06:05:38.847Z,53.36
2023-04-15T06:08:47.749Z,53.11
2023-04-15T06:11:54.798Z,52.87
2023-04-15T06:15:01.196Z,53.03
2023-04-15T06:18:07.107Z,52.26
2023-04-15T06:21:13.869Z,52.73
2023-04-15T06:24:22.358Z,52.69
2023-04-15T06:27:28.897Z,52.07
2023-04-15T06:30:34.466Z,51.22
2023-04-15T06:33:40.964Z,50.24
2023-04-15T06:36:46.780Z,50.47
2023-04-15T06:39:55.920Z,50.17
2023-04-15T06:43:01.544Z,49.50
2023-04-15T06:46:08.424Z,48.45
2023-04-15T06:49:14.447Z,47.92
2023-04-15T06:52:21.427Z,48.19
2023-04-15T06:55:29.877Z,47.26
2023-04-15T06:58:36.580Z,46.17
2023-04-15T07:01:42.203Z,44.07
2023-04-15T07:04:49.162Z,43.97
2023-04-15T07:07:54.861Z,41.64
2023-04-15T07:11:04.073Z,42.87
2023-04-15T07:14:09.649Z,43.18
2023-04-15T07:17:16.102Z,40.64
2023-04-15T07:20:21.952Z,40.04
2023-04-15T07:23:28.632Z,38.94
2023-04-15T07:26:36.863Z,37.80
2023-04-15T07:29:43.162Z,36.04
2023-04-15T07:32:48.866Z,35.12
2023-04-15T07:35:55.395Z,35.19
2023-04-15T07:39:02.490Z,33.86
2023-04-15T07:42:12.037Z,32.37
2023-04-15T07:45:17.983Z,33.40
2023-04-15T07:48:24.312Z,32.85
2023-04-15T07:51:30.125Z,30.11
2023-04-15T07:54:39.045Z,29.37
2023-04-15T07:57:47.534Z,29.35
2023-04-15T08:00:55.436Z,27.91
2023-04-15T08:04:03.064Z,25.76
2023-04-15T08:07:09.599Z,25.69
2023-04-15T08:10:15.354Z,25.11
2023-04-15T08:13:24.622Z,24.52
2023-04-15T08:16:30.667Z,23.57
2023-04-15T08:19:38.971Z,23.73
2023-04-15T08:22:45.042Z,23.55
2023-04-15T08:25:51.523Z,23.35
2023-04-15T08:29:00.851Z,23.53
2023-04-15T08:32:08.602Z,22.34
2023-04-15T08:35:14.992Z,22.17
2023-04-15T08:38:21.428Z,22.54
2023-04-15T08:41:30.245Z,21.74
2023-04-15T08:44:41.539Z,21.48
2023-04-15T08:47:57.798Z,20.33
2023-04-15T08:51:05.419Z,21.52
2023-04-15T08:54:12.918Z,21.46
2023-04-15T08:57:19.872Z,21.00
2023-04-15T09:00:29.863Z,21.74
2023-04-15T09:03:38.293Z,21.56
2023-04-15T09:06:44.661Z,22.02
2023-04-15T09:09:52.667Z,20.72
2023-04-15T09:12:58.515Z,20.25
2023-04-15T09:16:10.134Z,18.46
2023-04-15T09:19:25.992Z,17.16
2023-04-15T09:22:36.048Z,18.06
2023-04-15T09:25:45.090Z,16.89
2023-04-15T09:28:51.587Z,18.07
2023-04-15T09:31:59.843Z,17.89
2023-04-15T09:35:15.795Z,15.75
2023-04-15T09:38:21.609Z,15.89
2023-04-15T09:41:28.755Z,17.10
2023-04-15T09:44:34.394Z,17.27
2023-04-15T09:47:43.512Z,16.16
2023-04-15T09:50:49.624Z,15.65
2023-04-15T09:53:59.758Z,16.43
2023-04-15T09:57:10.975Z,17.13
2023-04-15T10:00:18.713Z,16.86
2023-04-15T10:03:29.435Z,18.71
2023-04-15T10:06:38.146Z,16.85
2023-04-15T10:09:46.015Z,17.07
2023-04-15T10:12:58.650Z,16.33
2023-04-15T10:16:10.308Z,16.72
2023-04-15T10:19:29.609Z,16.64
2023-04-15T10:22:36.403Z,16.46
2023-04-15T10:25:43.516Z,15.42
2023-04-15T10:28:50.254Z,14.07
2023-04-15T10:31:59.160Z,15.27
2023-04-15T10:35:11.081Z,15.05
2023-04-15T10:38:36.613Z,13.23
2023-04-15T10:41:42.756Z,14.89
2023-04-15T10:44:54.786Z,15.00
2023-04-15T10:48:04.393Z,13.97
2023-04-15T10:51:16.865Z,14.12
2023-04-15T10:54:39.207Z,14.74
2023-04-15T10:57:47.427Z,15.82
2023-04-15T11:00:56.705Z,18.59
2023-04-15T11:04:03.673Z,18.51
2023-04-15T11:07:14.697Z,17.22
2023-04-15T11:10:57.273Z,16.98
2023-04-15T11:14:03.272Z,17.42
2023-04-15T11:17:09.935Z,18.72
2023-04-15T11:20:19.501Z,20.48
2023-04-15T11:23:36.964Z,19.52
2023-04-15T11:26:42.582Z,20.64
2023-04-15T11:29:48.957Z,21.28
2023-04-15T11:32:57.618Z,21.90
2023-04-15T11:36:05.006Z,22.81
2023-04-15T11:39:13.171Z,23.55
2023-04-15T11:42:21.649Z,23.87
2023-04-15T11:45:27.435Z,24.81
2023-04-15T11:48:37.020Z,25.52
2023-04-15T11:51:42.743Z,25.04
2023-04-15T11:54:52.114Z,24.62
2023-04-15T11:58:13.519Z,28.07
2023-04-15T12:01:22.149Z,25.91
2023-04-15T12:04:28.026Z,25.77
2023-04-15T12:07:34.825Z,26.15
2023-04-15T12:10:43.139Z,26.03
2023-04-15T12:13:51.611Z,26.22
2023-04-15T12:17:01.669Z,25.45
2023-04-15T12:20:10.465Z,24.20
2023-04-15T12:23:16.523Z,24.61
2023-04-15T12:26:31.564Z,24.31
2023-04-15T12:29:39.662Z,23.08
2023-04-15T12:32:46.362Z,23.48
2023-04-15T12:35:52.090Z,23.80
2023-04-15T12:39:06.348Z,23.51
2023-04-15T12:42:16.202Z,23.64
2023-04-15T12:45:22.807Z,22.92
2023-04-15T12:48:28.714Z,23.86
2023-04-15T12:51:35.109Z,23.68
2023-04-15T12:54:42.818Z,23.30
2023-04-15T12:57:51.806Z,23.77
2023-04-15T13:00:57.619Z,23.20
2023-04-15T13:04:05.002Z,19.61
2023-04-15T13:07:13.736Z,19.87
2023-04-15T13:10:20.734Z,21.70
2023-04-15T13:13:29.346Z,20.74
2023-04-15T13:16:37.527Z,19.57
2023-04-15T13:19:43.098Z,20.15
2023-04-15T13:22:52.064Z,21.06
2023-04-15T13:25:58.512Z,20.16
2023-04-15T13:29:07.744Z,19.37
2023-04-15T13:32:13.462Z,20.11
2023-04-15T13:35:20.361Z,19.87
2023-04-15T13:38:27.915Z,19.54
2023-04-15T13:41:34.481Z,19.26
2023-04-15T13:44:43.229Z,19.93
2023-04-15T13:47:49.767Z,21.10
2023-04-15T13:50:55.530Z,20.16
2023-04-15T13:54:02.136Z,21.22
2023-04-15T13:57:08.615Z,21.53
2023-04-15T14:00:19.000Z,21.33
2023-04-15T14:03:24.866Z,22.68
2023-04-15T14:06:33.356Z,23.52
2023-04-15T14:09:43.329Z,24.75
2023-04-15T14:12:50.092Z,25.90
2023-04-15T14:15:59.619Z,26.29
2023-04-15T14:19:06.727Z,27.72
2023-04-15T14:22:12.695Z,27.81
2023-04-15T14:25:30.543Z,28.75
2023-04-15T14:28:39.760Z,29.08
2023-04-15T14:32:04.473Z,30.13
2023-04-15T14:35:15.774Z,28.96
2023-04-15T14:38:22.854Z,28.89
2023-04-15T14:41:28.698Z,28.78
2023-04-15T14:44:35.233Z,28.85
2023-04-15T14:47:43.584Z,29.47
2023-04-15T14:50:50.087Z,29.26
2023-04-15T14:53:55.708Z,28.88
2023-04-15T14:57:02.281Z,29.24
2023-04-15T15:00:11.078Z,29.83
2023-04-15T15:03:21.395Z,29.37
2023-04-15T15:06:28.052Z,29.73
2023-04-15T15:09:35.185Z,29.76
2023-04-15T15:12:40.751Z,29.72
2023-04-15T15:15:49.505Z,30.17
2023-04-15T15:18:58.440Z,29.79
2023-04-15T15:22:06.099Z,30.46
2023-04-15T15:25:12.026Z,31.43
2023-04-15T15:28:18.461Z,31.29
2023-04-15T15:31:24.080Z,31.74
2023-04-15T15:34:34.160Z,32.29
2023-04-15T15:37:41.123Z,34.08
2023-04-15T15:40:47.577Z,34.43
2023-04-15T15:43:53.339Z,35.46
2023-04-15T15:46:59.952Z,35.53
2023-04-15T15:50:11.911Z,36.14
2023-04-15T15:53:21.038Z,36.59
2023-04-15T15:56:27.223Z,37.36
2023-04-15T15:59:33.608Z,37.99
2023-04-15T16:05:52.860Z,50.93
2023-04-15T16:08:58.620Z,51.58
2023-04-15T16:12:05.732Z,51.78
2023-04-15T16:15:13.640Z,50.86
2023-04-15T16:18:20.112Z,48.23
2023-04-15T16:21:28.462Z,48.91
2023-04-15T16:24:36.295Z,47.78
2023-04-15T16:27:57.289Z,47.04
2023-04-15T16:31:07.721Z,46.91
2023-04-15T16:34:16.068Z,46.79
2023-04-15T16:37:25.202Z,47.14
2023-04-15T16:40:31.519Z,46.76
2023-04-15T16:43:38.256Z,47.74
2023-04-15T16:46:44.255Z,47.01
2023-04-15T16:49:51.302Z,47.76
2023-04-15T16:53:01.576Z,48.74
2023-04-15T16:56:08.879Z,49.70
2023-04-15T16:59:14.653Z,50.59
2023-04-15T17:02:21.938Z,51.19
2023-04-15T17:05:27.898Z,51.56
2023-04-15T17:08:36.929Z,52.73
2023-04-15T17:11:44.737Z,56.43
2023-04-15T17:14:51.144Z,59.72
2023-04-15T17:17:56.762Z,60.65
2023-04-15T17:21:03.314Z,61.75
2023-04-15T17:24:12.050Z,63.83
2023-04-15T17:27:21.501Z,66.82
2023-04-15T17:30:27.438Z,65.95
2023-04-15T17:33:55.896Z,64.31
2023-04-15T17:37:00.065Z,71.15
2023-04-15T17:40:11.641Z,72.73
2023-04-15T17:43:17.310Z,77.52
2023-04-15T17:46:23.845Z,78.24
2023-04-15T17:49:31.435Z,80.23
2023-04-15T17:52:38.031Z,82.74
2023-04-15T17:55:46.822Z,81.00
2023-04-15T17:58:53.356Z,82.52
2023-04-15T18:01:59.305Z,82.89
2023-04-15T18:05:06.265Z,82.61
2023-04-15T18:08:12.042Z,81.96
2023-04-15T18:11:23.880Z,78.93
2023-04-15T18:14:34.745Z,80.18
2023-04-15T18:17:41.657Z,83.50
2023-04-15T18:20:50.737Z,83.06
2023-04-15T18:23:57.236Z,83.20
2023-04-15T18:27:06.133Z,82.85
2023-04-15T18:30:15.565Z,82.73
2023-04-15T18:33:21.269Z,79.89
2023-04-15T18:36:29.649Z,80.39
2023-04-15T18:39:35.223Z,80.63
2023-04-15T18:42:44.163Z,80.24
2023-04-15T18:45:49.852Z,80.44
2023-04-15T18:48:56.491Z,79.98
2023-04-15T18:52:02.963Z,81.63
2023-04-15T18:55:11.338Z,81.19
2023-04-15T18:58:19.633Z,79.93
2023-04-15T19:01:26.611Z,79.57
2023-04-15T19:04:32.299Z,78.04
2023-04-15T19:07:39.423Z,78.12
2023-04-15T19:10:45.791Z,80.49
2023-04-15T19:13:55.549Z,80.12
2023-04-15T19:17:03.469Z,79.65
2023-04-15T19:20:11.495Z,79.88
2023-04-15T19:23:17.175Z,79.17
2023-04-15T19:26:23.569Z,78.92
2023-04-15T19:29:31.906Z,78.73
2023-04-15T19:32:38.629Z,79.41
2023-04-15T19:35:44.478Z,79.25
2023-04-15T19:38:51.103Z,78.19
2023-04-15T19:41:56.914Z,80.03
2023-04-15T19:45:06.370Z,80.14
2023-04-15T19:48:12.603Z,79.59
2023-04-15T19:51:19.950Z,79.64
2023-04-15T19:54:26.337Z,80.23
2023-04-15T19:57:33.204Z,79.71
2023-04-15T20:00:41.965Z,80.56
2023-04-15T20:03:48.682Z,81.10
2023-04-15T20:06:55.053Z,80.21
2023-04-15T20:10:01.498Z,80.30
2023-04-15T20:13:07.222Z,80.26
2023-04-15T20:16:17.002Z,79.52
2023-04-15T20:19:22.742Z,79.03
2023-04-15T20:22:29.178Z,79.66
2023-04-15T20:25:34.792Z,79.00
2023-04-15T20:28:41.517Z,79.10
2023-04-15T20:31:49.913Z,79.82
2023-04-15T20:34:56.465Z,79.39
2023-04-15T20:38:02.935Z,79.69
2023-04-15T20:41:09.762Z,78.30
2023-04-15T20:44:15.620Z,78.09
2023-04-15T20:47:24.863Z,77.23
2023-04-15T20:50:30.838Z,76.63
2023-04-15T20:53:37.218Z,76.18
2023-04-15T20:56:42.777Z,76.26
2023-04-15T20:59:49.295Z,75.84
2023-04-15T21:02:57.640Z,77.11
2023-04-15T21:06:04.067Z,78.58
2023-04-15T21:09:09.767Z,79.22
2023-04-15T21:12:16.378Z,77.48
2023-04-15T21:15:22.238Z,76.51
2023-04-15T21:18:31.432Z,77.33
2023-04-15T21:21:36.993Z,77.92
2023-04-15T21:24:43.611Z,78.58
2023-04-15T21:27:49.241Z,77.14
2023-04-15T21:30:55.721Z,73.91
2023-04-15T21:34:04.056Z,75.41
2023-04-15T21:37:10.586Z,75.54
2023-04-15T21:40:18.801Z,77.58
2023-04-15T21:43:25.870Z,77.29
2023-04-15T21:46:33.233Z,77.11
2023-04-15T21:49:44.542Z,78.00
2023-04-15T21:52:50.169Z,76.88
2023-04-15T21:55:56.524Z,77.16
2023-04-15T21:59:04.870Z,77.01
2023-04-15T22:02:11.833Z,75.67
2023-04-15T22:05:21.624Z,72.13
2023-04-15T22:08:28.069Z,74.49
2023-04-15T22:11:33.767Z,75.40
2023-04-15T22:14:40.183Z,73.45
2023-04-15T22:17:45.902Z,73.55
2023-04-15T22:20:54.926Z,71.28
2023-04-15T22:24:38.869Z,71.26
2023-04-15T22:27:27.449Z,71.21
2023-04-15T22:30:33.119Z,68.96
2023-04-15T22:33:39.599Z,69.96
2023-04-15T22:36:47.837Z,70.11
2023-04-15T22:39:55.259Z,70.43
2023-04-15T22:43:00.943Z,70.15
2023-04-15T22:46:08.607Z,71.19
2023-04-15T22:49:14.294Z,71.83
2023-04-15T22:52:30.141Z,70.13
2023-04-15T22:55:36.849Z,70.23
2023-04-15T22:58:43.315Z,70.67
2023-04-15T23:01:49.069Z,71.43
2023-04-15T23:04:55.892Z,72.04
2023-04-15T23:08:04.290Z,71.63
2023-04-15T23:11:11.373Z,72.37
2023-04-15T23:14:17.117Z,72.08
2023-04-15T23:17:23.659Z,71.75
2023-04-15T23:20:29.417Z,70.78
2023-04-15T23:23:38.493Z,67.73
2023-04-15T23:26:44.256Z,68.53
2023-04-15T23:29:50.736Z,69.12
2023-04-15T23:32:58.339Z,67.84
2023-04-15T23:36:04.867Z,67.76
2023-04-15T23:39:13.076Z,68.44
2023-04-15T23:42:19.582Z,66.66
2023-04-15T23:45:25.448Z,66.98
2023-04-15T23:48:31.947Z,67.02
2023-04-15T23:51:37.579Z,67.68
2023-04-15T23:54:46.622Z,67.96
2023-04-15T23:57:52.154Z,67.12
